sensor_id;sensor_type;location;lat;lon;timestamp;P1;P2;P0
57373;PMS7003;43964;53.890;25.340;2024-02-26T00:05:00;0.8;0.3;0
57373;PMS7003;43964;53.890;25.340;2024-02-26T00:09:32;0.4;0.2;0
57373;PMS7003;43964;53.890;25.340;2024-02-26T00:14:36;0.6;0.4;0
57373;PMS7003;43964;53.890;25.340;2024-02-26T00:19:56;1;0.4;0.2
57373;PMS7003;43964;53.890;25.340;2024-02-26T00:24:28;0.2;0.2;0
57373;PMS7003;43964;53.890;25.340;2024-02-26T00:29:16;0.8;0.4;0
57373;PMS7003;43964;53.890;25.340;2024-02-26T00:34:30;0.8;0.4;0
57373;PMS7003;43964;53.890;25.340;2024-02-26T00:39:52;1;0.8;0
57373;PMS7003;43964;53.890;25.340;2024-02-26T00:45:06;1.6;0.8;0
57373;PMS7003;43964;53.890;25.340;2024-02-26T00:50:06;3.4;1.6;0.4
57373;PMS7003;43964;53.890;25.340;2024-02-26T00:54:24;3.4;1.6;0.4
57373;PMS7003;43964;53.890;25.340;2024-02-26T01:00:08;2.3;2.3;1
57373;PMS7003;43964;53.890;25.340;2024-02-26T01:04:40;2.3;2.3;1
57373;PMS7003;43964;53.890;25.340;2024-02-26T01:09:56;2.8;2.2;0.8
57373;PMS7003;43964;53.890;25.340;2024-02-26T01:14:30;3.8;2;0.8
57373;PMS7003;43964;53.890;25.340;2024-02-26T01:19:40;3.6;2.4;1.4
57373;PMS7003;43964;53.890;25.340;2024-02-26T01:24:38;2.8;2.4;0.8
57373;PMS7003;43964;53.890;25.340;2024-02-26T01:30:08;4.4;2.6;1.2
57373;PMS7003;43964;53.890;25.340;2024-02-26T01:34:36;4.4;2.6;1.2
57373;PMS7003;43964;53.890;25.340;2024-02-26T01:40:08;4.2;2.2;0.8
57373;PMS7003;43964;53.890;25.340;2024-02-26T01:44:16;4.2;2.2;0.8
57373;PMS7003;43964;53.890;25.340;2024-02-26T01:49:18;3;2;0.2
57373;PMS7003;43964;53.890;25.340;2024-02-26T01:54:24;2.8;1.6;0.6
57373;PMS7003;43964;53.890;25.340;2024-02-26T01:59:36;4;3;1.2
57373;PMS7003;43964;53.890;25.340;2024-02-26T02:04:34;4.5;3;1.3
57373;PMS7003;43964;53.890;25.340;2024-02-26T02:10:06;2.8;2.2;0.8
57373;PMS7003;43964;53.890;25.340;2024-02-26T02:14:52;2.8;2.2;0.8
57373;PMS7003;43964;53.890;25.340;2024-02-26T02:20:07;1.8;1.4;0.2
57373;PMS7003;43964;53.890;25.340;2024-02-26T02:25:08;4.2;2.8;1.4
57373;PMS7003;43964;53.890;25.340;2024-02-26T02:29:24;4.2;2.8;1.4
57373;PMS7003;43964;53.890;25.340;2024-02-26T02:34:34;4.8;2.4;1
57373;PMS7003;43964;53.890;25.340;2024-02-26T02:40:00;3.6;3;1.4
57373;PMS7003;43964;53.890;25.340;2024-02-26T02:44:50;3;2.6;1
57373;PMS7003;43964;53.890;25.340;2024-02-26T02:49:24;4.4;4;1.6
57373;PMS7003;43964;53.890;25.340;2024-02-26T02:55:08;3;2.4;0.4
57373;PMS7003;43964;53.890;25.340;2024-02-26T02:59:44;3;2.4;0.4
57373;PMS7003;43964;53.890;25.340;2024-02-26T03:05:08;3.5;2.5;0.8
57373;PMS7003;43964;53.890;25.340;2024-02-26T03:09:34;3.5;2.5;0.8
57373;PMS7003;43964;53.890;25.340;2024-02-26T03:15:08;3.8;2;0.8
57373;PMS7003;43964;53.890;25.340;2024-02-26T03:19:43;3.8;2;0.8
57373;PMS7003;43964;53.890;25.340;2024-02-26T03:25:08;2;1.8;0.8
57373;PMS7003;43964;53.890;25.340;2024-02-26T03:29:16;2;1.8;0.8
57373;PMS7003;43964;53.890;25.340;2024-02-26T03:34:44;1.8;1;0.2
57373;PMS7003;43964;53.890;25.340;2024-02-26T03:39:16;1.2;0.8;0.2
57373;PMS7003;43964;53.890;25.340;2024-02-26T03:44:25;2.8;1.4;0.4
57373;PMS7003;43964;53.890;25.340;2024-02-26T03:49:50;2.8;1.6;0.2
57373;PMS7003;43964;53.890;25.340;2024-02-26T03:54:52;1.4;1;0.2
57373;PMS7003;43964;53.890;25.340;2024-02-26T04:00:08;2.8;1.6;0.6
57373;PMS7003;43964;53.890;25.340;2024-02-26T04:04:24;2.8;1.6;0.6
57373;PMS7003;43964;53.890;25.340;2024-02-26T04:10:08;2.2;2;0.6
57373;PMS7003;43964;53.890;25.340;2024-02-26T04:14:52;2.2;2;0.6
57373;PMS7003;43964;53.890;25.340;2024-02-26T04:19:56;1.6;1.2;0.2
57373;PMS7003;43964;53.890;25.340;2024-02-26T04:24:36;2.6;1.4;0.2
57373;PMS7003;43964;53.890;25.340;2024-02-26T04:29:26;2.2;1;0.2
57373;PMS7003;43964;53.890;25.340;2024-02-26T04:35:08;1.8;1.2;0.2
57373;PMS7003;43964;53.890;25.340;2024-02-26T04:39:48;1.8;1.2;0.2
57373;PMS7003;43964;53.890;25.340;2024-02-26T04:44:42;2;0.8;0.2
57373;PMS7003;43964;53.890;25.340;2024-02-26T04:50:08;3.2;2.2;1.2
57373;PMS7003;43964;53.890;25.340;2024-02-26T04:55:06;2.2;1.4;0.6
57373;PMS7003;43964;53.890;25.340;2024-02-26T04:59:52;2.2;1.4;0.6
57373;PMS7003;43964;53.890;25.340;2024-02-26T05:05:06;2;1.5;0.8
57373;PMS7003;43964;53.890;25.340;2024-02-26T05:09:16;2;1.5;0.8
57373;PMS7003;43964;53.890;25.340;2024-02-26T05:14:24;3.6;1.8;0.8
57373;PMS7003;43964;53.890;25.340;2024-02-26T05:19:24;3.6;2.8;1
57373;PMS7003;43964;53.890;25.340;2024-02-26T05:24:37;4.2;3.6;1.6
57373;PMS7003;43964;53.890;25.340;2024-02-26T05:30:04;4.2;4;2
57373;PMS7003;43964;53.890;25.340;2024-02-26T05:34:46;4.2;4;2
57373;PMS7003;43964;53.890;25.340;2024-02-26T05:39:30;3;2.4;1
57373;PMS7003;43964;53.890;25.340;2024-02-26T05:45:06;2.8;2.4;1.4
57373;PMS7003;43964;53.890;25.340;2024-02-26T05:49:34;2.8;2.4;1.4
57373;PMS7003;43964;53.890;25.340;2024-02-26T05:54:24;3.3;2.3;1
57373;PMS7003;43964;53.890;25.340;2024-02-26T06:00:06;3.2;2.4;1
57373;PMS7003;43964;53.890;25.340;2024-02-26T06:04:46;3.2;2.4;1
57373;PMS7003;43964;53.890;25.340;2024-02-26T06:09:56;2.4;1.6;0.6
57373;PMS7003;43964;53.890;25.340;2024-02-26T06:14:16;2.2;2;0.6
57373;PMS7003;43964;53.890;25.340;2024-02-26T06:19:56;4;2.2;1.2
57373;PMS7003;43964;53.890;25.340;2024-02-26T06:25:06;2.4;2;0.6
57373;PMS7003;43964;53.890;25.340;2024-02-26T06:30:06;4;2.6;1
57373;PMS7003;43964;53.890;25.340;2024-02-26T06:34:24;4;2.6;1
57373;PMS7003;43964;53.890;25.340;2024-02-26T06:39:42;2;1.3;0.8
57373;PMS7003;43964;53.890;25.340;2024-02-26T06:44:16;2.4;1.4;0.8
57373;PMS7003;43964;53.890;25.340;2024-02-26T06:49:24;2;1.4;0.4
57373;PMS7003;43964;53.890;25.340;2024-02-26T06:54:16;2.8;1.6;0.8
57373;PMS7003;43964;53.890;25.340;2024-02-26T06:59:24;2;1;0
57373;PMS7003;43964;53.890;25.340;2024-02-26T07:04:54;2.2;1;0
57373;PMS7003;43964;53.890;25.340;2024-02-26T07:09:44;2;2;0.6
57373;PMS7003;43964;53.890;25.340;2024-02-26T07:14:32;2;1.6;1
57373;PMS7003;43964;53.890;25.340;2024-02-26T07:20:04;2;1.8;0.6
57373;PMS7003;43964;53.890;25.340;2024-02-26T07:24:50;2;1.8;0.6
57373;PMS7003;43964;53.890;25.340;2024-02-26T07:29:16;1.6;1;0
57373;PMS7003;43964;53.890;25.340;2024-02-26T07:34:16;2.8;1.4;0.4
57373;PMS7003;43964;53.890;25.340;2024-02-26T07:39:44;2;1;0.4
57373;PMS7003;43964;53.890;25.340;2024-02-26T07:44:36;1.8;1.5;1
57373;PMS7003;43964;53.890;25.340;2024-02-26T07:49:36;2.4;1.4;0.4
57373;PMS7003;43964;53.890;25.340;2024-02-26T07:54:16;2;1;0.2
57373;PMS7003;43964;53.890;25.340;2024-02-26T07:59:16;1.2;0.6;0.2
57373;PMS7003;43964;53.890;25.340;2024-02-26T08:05:02;1.2;0.8;0.2
57373;PMS7003;43964;53.890;25.340;2024-02-26T08:09:42;1.2;0.8;0
57373;PMS7003;43964;53.890;25.340;2024-02-26T08:14:56;0.4;0;0
57373;PMS7003;43964;53.890;25.340;2024-02-26T08:19:50;0;0;0
57373;PMS7003;43964;53.890;25.340;2024-02-26T08:24:56;0.4;0;0
57373;PMS7003;43964;53.890;25.340;2024-02-26T08:29:24;0.6;0.6;0.2
57373;PMS7003;43964;53.890;25.340;2024-02-26T08:34:38;0.6;0.2;0
57373;PMS7003;43964;53.890;25.340;2024-02-26T08:39:58;1;1;0
57373;PMS7003;43964;53.890;25.340;2024-02-26T08:44:44;0.5;0.5;0
57373;PMS7003;43964;53.890;25.340;2024-02-26T08:49:58;1;0.3;0
57373;PMS7003;43964;53.890;25.340;2024-02-26T08:55:05;0;0;0
57373;PMS7003;43964;53.890;25.340;2024-02-26T08:59:40;0;0;0
57373;PMS7003;43964;53.890;25.340;2024-02-26T09:04:30;0;0;0
57373;PMS7003;43964;53.890;25.340;2024-02-26T09:09:44;0.2;0.2;0
57373;PMS7003;43964;53.890;25.340;2024-02-26T09:15:05;0.6;0;0
57373;PMS7003;43964;53.890;25.340;2024-02-26T09:19:56;0.6;0;0
57373;PMS7003;43964;53.890;25.340;2024-02-26T09:24:24;0;0;0
57373;PMS7003;43964;53.890;25.340;2024-02-26T09:29:38;0.2;0;0
57373;PMS7003;43964;53.890;25.340;2024-02-26T09:34:48;0.6;0.2;0
57373;PMS7003;43964;53.890;25.340;2024-02-26T09:39:18;0.4;0;0
57373;PMS7003;43964;53.890;25.340;2024-02-26T09:44:34;0.4;0;0
57373;PMS7003;43964;53.890;25.340;2024-02-26T09:49:32;0;0;0
57373;PMS7003;43964;53.890;25.340;2024-02-26T09:54:42;0;0;0
57373;PMS7003;43964;53.890;25.340;2024-02-26T09:59:43;0;0;0
57373;PMS7003;43964;53.890;25.340;2024-02-26T10:04:34;0.2;0;0
57373;PMS7003;43964;53.890;25.340;2024-02-26T10:09:50;0.2;0;0
57373;PMS7003;43964;53.890;25.340;2024-02-26T10:14:34;0;0;0
57373;PMS7003;43964;53.890;25.340;2024-02-26T10:19:24;0;0;0
57373;PMS7003;43964;53.890;25.340;2024-02-26T10:24:36;0;0;0
57373;PMS7003;43964;53.890;25.340;2024-02-26T10:29:16;0;0;0
57373;PMS7003;43964;53.890;25.340;2024-02-26T10:35:08;0;0;0
57373;PMS7003;43964;53.890;25.340;2024-02-26T10:39:32;0;0;0
57373;PMS7003;43964;53.890;25.340;2024-02-26T10:45:07;0.2;0;0
57373;PMS7003;43964;53.890;25.340;2024-02-26T10:50:08;0;0;0
57373;PMS7003;43964;53.890;25.340;2024-02-26T10:55:00;0;0;0
57373;PMS7003;43964;53.890;25.340;2024-02-26T10:59:24;0;0;0
57373;PMS7003;43964;53.890;25.340;2024-02-26T11:04:48;0.8;0;0
57373;PMS7003;43964;53.890;25.340;2024-02-26T11:09:59;0;0;0
57373;PMS7003;43964;53.890;25.340;2024-02-26T11:15:08;0.3;0;0
57373;PMS7003;43964;53.890;25.340;2024-02-26T11:19:24;0.3;0;0
57373;PMS7003;43964;53.890;25.340;2024-02-26T11:24:48;0.2;0.2;0
57373;PMS7003;43964;53.890;25.340;2024-02-26T11:30:08;0.2;0;0
57373;PMS7003;43964;53.890;25.340;2024-02-26T11:34:53;0.2;0;0
57373;PMS7003;43964;53.890;25.340;2024-02-26T11:40:09;0.2;0;0
57373;PMS7003;43964;53.890;25.340;2024-02-26T11:44:24;0.2;0;0
57373;PMS7003;43964;53.890;25.340;2024-02-26T11:49:32;0.4;0.2;0
57373;PMS7003;43964;53.890;25.340;2024-02-26T11:54:44;0.6;0.4;0
57373;PMS7003;43964;53.890;25.340;2024-02-26T11:59:19;0.2;0;0
57373;PMS7003;43964;53.890;25.340;2024-02-26T12:04:17;0;0;0
57373;PMS7003;43964;53.890;25.340;2024-02-26T12:10:23;0;0;0
57373;PMS7003;43964;53.890;25.340;2024-02-26T12:14:33;0;0;0
57373;PMS7003;43964;53.890;25.340;2024-02-26T12:25:58;0;0;0
57373;PMS7003;43964;53.890;25.340;2024-02-26T12:29:58;0;0;0
57373;PMS7003;43964;53.890;25.340;2024-02-26T12:34:38;0;0;0
57373;PMS7003;43964;53.890;25.340;2024-02-26T12:39:49;0.2;0;0
57373;PMS7003;43964;53.890;25.340;2024-02-26T12:45:09;0.3;0;0
57373;PMS7003;43964;53.890;25.340;2024-02-26T12:49:48;0.3;0;0
57373;PMS7003;43964;53.890;25.340;2024-02-26T12:54:16;0.2;0;0
57373;PMS7003;43964;53.890;25.340;2024-02-26T13:00:09;0.3;0;0
57373;PMS7003;43964;53.890;25.340;2024-02-26T13:04:48;0.3;0;0
57373;PMS7003;43964;53.890;25.340;2024-02-26T13:09:52;0;0;0
57373;PMS7003;43964;53.890;25.340;2024-02-26T13:15:07;0.2;0;0
57373;PMS7003;43964;53.890;25.340;2024-02-26T13:19:16;0.2;0;0
57373;PMS7003;43964;53.890;25.340;2024-02-26T13:24:36;0;0;0
57373;PMS7003;43964;53.890;25.340;2024-02-26T13:29:24;0;0;0
57373;PMS7003;43964;53.890;25.340;2024-02-26T13:34:48;0;0;0
57373;PMS7003;43964;53.890;25.340;2024-02-26T13:39:34;0;0;0
57373;PMS7003;43964;53.890;25.340;2024-02-26T13:44:48;0;0;0
57373;PMS7003;43964;53.890;25.340;2024-02-26T13:49:26;0;0;0
57373;PMS7003;43964;53.890;25.340;2024-02-26T13:55:08;0.7;0;0
57373;PMS7003;43964;53.890;25.340;2024-02-26T13:59:52;0.7;0;0
57373;PMS7003;43964;53.890;25.340;2024-02-26T14:04:24;0;0;0
57373;PMS7003;43964;53.890;25.340;2024-02-26T14:09:16;0;0;0
57373;PMS7003;43964;53.890;25.340;2024-02-26T14:14:48;0;0;0
57373;PMS7003;43964;53.890;25.340;2024-02-26T14:19:58;0;0;0
57373;PMS7003;43964;53.890;25.340;2024-02-26T14:24:38;0;0;0
57373;PMS7003;43964;53.890;25.340;2024-02-26T14:29:58;0;0;0
57373;PMS7003;43964;53.890;25.340;2024-02-26T14:34:34;0;0;0
57373;PMS7003;43964;53.890;25.340;2024-02-26T14:40:09;0;0;0
57373;PMS7003;43964;53.890;25.340;2024-02-26T14:44:42;0;0;0
57373;PMS7003;43964;53.890;25.340;2024-02-26T14:49:18;0;0;0
57373;PMS7003;43964;53.890;25.340;2024-02-26T14:54:16;0.2;0;0
57373;PMS7003;43964;53.890;25.340;2024-02-26T14:59:16;0.4;0;0
57373;PMS7003;43964;53.890;25.340;2024-02-26T15:04:16;0;0;0
57373;PMS7003;43964;53.890;25.340;2024-02-26T15:15:09;0;0;0
57373;PMS7003;43964;53.890;25.340;2024-02-26T15:19:48;0;0;0
57373;PMS7003;43964;53.890;25.340;2024-02-26T15:24:52;0.2;0;0
57373;PMS7003;43964;53.890;25.340;2024-02-26T15:30:05;0.6;0;0
57373;PMS7003;43964;53.890;25.340;2024-02-26T15:35:07;1.8;0.5;0
57373;PMS7003;43964;53.890;25.340;2024-02-26T15:39:16;1.8;0.5;0
57373;PMS7003;43964;53.890;25.340;2024-02-26T15:44:48;3;1;0
57373;PMS7003;43964;53.890;25.340;2024-02-26T15:49:54;2;1.3;0.3
57373;PMS7003;43964;53.890;25.340;2024-02-26T15:59:17;2.3;2.3;1.3
57373;PMS7003;43964;53.890;25.340;2024-02-26T16:09:25;2;2;1
57373;PMS7003;43964;53.890;25.340;2024-02-26T16:14:39;2;1.8;1
57373;PMS7003;43964;53.890;25.340;2024-02-26T16:19:59;3.4;2.4;1.2
57373;PMS7003;43964;53.890;25.340;2024-02-26T16:24:53;2.2;1;0.4
57373;PMS7003;43964;53.890;25.340;2024-02-26T16:30:09;3.6;2;1.2
57373;PMS7003;43964;53.890;25.340;2024-02-26T16:34:52;3.6;2;1.2
57373;PMS7003;43964;53.890;25.340;2024-02-26T16:39:24;1.3;1;0.3
57373;PMS7003;43964;53.890;25.340;2024-02-26T16:44:33;3.8;1.4;0.2
57373;PMS7003;43964;53.890;25.340;2024-02-26T16:49:22;2;1.8;0.4
57373;PMS7003;43964;53.890;25.340;2024-02-26T16:54:24;2.2;1.2;0.2
57373;PMS7003;43964;53.890;25.340;2024-02-26T16:59:50;2.8;1.8;0.6
57373;PMS7003;43964;53.890;25.340;2024-02-26T17:05:07;2;1.4;0.2
57373;PMS7003;43964;53.890;25.340;2024-02-26T17:10:07;1.5;1.3;0.5
57373;PMS7003;43964;53.890;25.340;2024-02-26T17:14:23;1.5;1.3;0.5
57373;PMS7003;43964;53.890;25.340;2024-02-26T17:19:19;1.8;1.4;0.6
57373;PMS7003;43964;53.890;25.340;2024-02-26T17:24:27;1.6;1;0
57373;PMS7003;43964;53.890;25.340;2024-02-26T17:30:07;1.8;1.2;0.4
57373;PMS7003;43964;53.890;25.340;2024-02-26T17:34:25;1.8;1.2;0.4
57373;PMS7003;43964;53.890;25.340;2024-02-26T17:39:47;0.6;0.4;0.2
57373;PMS7003;43964;53.890;25.340;2024-02-26T17:44:39;1.4;0.8;0.2
57373;PMS7003;43964;53.890;25.340;2024-02-26T17:50:07;3;1;0.3
57373;PMS7003;43964;53.890;25.340;2024-02-26T17:55:05;1.2;1;0.4
57373;PMS7003;43964;53.890;25.340;2024-02-26T18:00:07;1.5;1.5;0.5
57373;PMS7003;43964;53.890;25.340;2024-02-26T18:04:43;1.5;1.5;0.5
57373;PMS7003;43964;53.890;25.340;2024-02-26T18:09:19;2.5;2;0.5
57373;PMS7003;43964;53.890;25.340;2024-02-26T18:14:59;3.8;2.3;0.8
57373;PMS7003;43964;53.890;25.340;2024-02-26T18:19:17;2.3;1.3;0.7
57373;PMS7003;43964;53.890;25.340;2024-02-26T18:24:21;3.5;2.8;0.5
57373;PMS7003;43964;53.890;25.340;2024-02-26T18:34:17;4;3.5;1
57373;PMS7003;43964;53.890;25.340;2024-02-26T18:39:31;3.5;3;1.5
57373;PMS7003;43964;53.890;25.340;2024-02-26T18:45:01;4;3.5;1.3
57373;PMS7003;43964;53.890;25.340;2024-02-26T18:49:17;2.5;1.5;0.8
57373;PMS7003;43964;53.890;25.340;2024-02-26T18:54:41;4;4;2
57373;PMS7003;43964;53.890;25.340;2024-02-26T19:00:07;2.3;2.3;1
57373;PMS7003;43964;53.890;25.340;2024-02-26T19:04:59;2.3;2.3;1
57373;PMS7003;43964;53.890;25.340;2024-02-26T19:09:25;2;1.7;0.7
57373;PMS7003;43964;53.890;25.340;2024-02-26T19:14:49;2;1;0
57373;PMS7003;43964;53.890;25.340;2024-02-26T19:20:07;3;3;1
57373;PMS7003;43964;53.890;25.340;2024-02-26T19:24:55;3;3;1
57373;PMS7003;43964;53.890;25.340;2024-02-26T19:29:25;1;1;0
57373;PMS7003;43964;53.890;25.340;2024-02-26T19:35:09;3.7;2;0.7
57373;PMS7003;43964;53.890;25.340;2024-02-26T19:40:09;2.7;2;0.7
57373;PMS7003;43964;53.890;25.340;2024-02-26T19:44:53;2.7;2;0.7
57373;PMS7003;43964;53.890;25.340;2024-02-26T19:50:09;3.5;1.5;0.5
57373;PMS7003;43964;53.890;25.340;2024-02-26T19:54:33;3.5;1.5;0.5
57373;PMS7003;43964;53.890;25.340;2024-02-26T20:04:26;1;1;0
57373;PMS7003;43964;53.890;25.340;2024-02-26T20:09:39;4;3;1
57373;PMS7003;43964;53.890;25.340;2024-02-26T20:14:35;2;1.6;0.4
57373;PMS7003;43964;53.890;25.340;2024-02-26T20:19:47;1.5;0.5;0
57373;PMS7003;43964;53.890;25.340;2024-02-26T20:24:17;3;2;1
57373;PMS7003;43964;53.890;25.340;2024-02-26T20:30:07;2.5;1.5;0
57373;PMS7003;43964;53.890;25.340;2024-02-26T20:34:51;2.5;1.5;0
57373;PMS7003;43964;53.890;25.340;2024-02-26T20:39:51;4.2;2.4;0.8
57373;PMS7003;43964;53.890;25.340;2024-02-26T20:44:17;1.5;1;0
57373;PMS7003;43964;53.890;25.340;2024-02-26T20:49:47;1.3;0.7;0
57373;PMS7003;43964;53.890;25.340;2024-02-26T20:55:03;1;0.8;0
57373;PMS7003;43964;53.890;25.340;2024-02-26T20:59:39;1;0.8;0
57373;PMS7003;43964;53.890;25.340;2024-02-26T21:04:59;1.2;1.2;0
57373;PMS7003;43964;53.890;25.340;2024-02-26T21:09:53;2;0.3;0
57373;PMS7003;43964;53.890;25.340;2024-02-26T21:15:09;1.5;1;0
57373;PMS7003;43964;53.890;25.340;2024-02-26T21:24:59;2.7;0.3;0
57373;PMS7003;43964;53.890;25.340;2024-02-26T21:29:43;3.5;1.5;0
57373;PMS7003;43964;53.890;25.340;2024-02-26T21:34:17;2.7;2;0.7
57373;PMS7003;43964;53.890;25.340;2024-02-26T21:39:17;3.3;2.5;0.8
57373;PMS7003;43964;53.890;25.340;2024-02-26T21:49:17;3;0;0
57373;PMS7003;43964;53.890;25.340;2024-02-26T21:54:46;2.5;1.5;0.5
57373;PMS7003;43964;53.890;25.340;2024-02-26T21:59:35;2.7;1.3;0.7
57373;PMS7003;43964;53.890;25.340;2024-02-26T22:05:09;2.5;2;1
57373;PMS7003;43964;53.890;25.340;2024-02-26T22:09:53;2.5;2;1
57373;PMS7003;43964;53.890;25.340;2024-02-26T22:14:25;3;1.7;0.7
57373;PMS7003;43964;53.890;25.340;2024-02-26T22:19:39;2;1;0
57373;PMS7003;43964;53.890;25.340;2024-02-26T22:24:49;0;0;0
57373;PMS7003;43964;53.890;25.340;2024-02-26T22:30:09;1.8;0.8;0.3
57373;PMS7003;43964;53.890;25.340;2024-02-26T22:34:39;1.8;0.8;0.3
57373;PMS7003;43964;53.890;25.340;2024-02-26T22:39:33;2;1.2;0
57373;PMS7003;43964;53.890;25.340;2024-02-26T22:44:53;2.6;1.4;0.4
57373;PMS7003;43964;53.890;25.340;2024-02-26T22:50:09;1;0.3;0
57373;PMS7003;43964;53.890;25.340;2024-02-26T22:54:43;1;0.3;0
57373;PMS7003;43964;53.890;25.340;2024-02-26T22:59:51;3.5;2;0.5
57373;PMS7003;43964;53.890;25.340;2024-02-26T23:15:09;2.5;1.5;0.5
57373;PMS7003;43964;53.890;25.340;2024-02-26T23:19:37;2.5;1.5;0.5
57373;PMS7003;43964;53.890;25.340;2024-02-26T23:25:08;2.5;2;0.5
57373;PMS7003;43964;53.890;25.340;2024-02-26T23:29:45;2.5;2;0.5
57373;PMS7003;43964;53.890;25.340;2024-02-26T23:34:59;2.7;2;0.3
57373;PMS7003;43964;53.890;25.340;2024-02-26T23:39:59;3.3;2.3;1
57373;PMS7003;43964;53.890;25.340;2024-02-26T23:45:07;1.6;1.4;0.2
57373;PMS7003;43964;53.890;25.340;2024-02-26T23:50:07;2;1;0.2
57373;PMS7003;43964;53.890;25.340;2024-02-26T23:55:07;2.2;1.4;0.8
57373;PMS7003;43964;53.890;25.340;2024-02-26T23:59:43;2.2;1.4;0.8
